createdAt,value
2023-03-06T00:00:19.306Z,1001.4
2023-03-06T00:03:18.733Z,1001.4
2023-03-06T00:06:18.481Z,1001.4
2023-03-06T00:09:18.806Z,1001.4
2023-03-06T00:12:18.365Z,1001.4
2023-03-06T00:15:18.576Z,1001.4
2023-03-06T00:18:18.791Z,1001.4
2023-03-06T00:21:17.981Z,1001.4
2023-03-06T00:24:18.450Z,1001.4
2023-03-06T00:27:18.619Z,1001.4
2023-03-06T00:30:19.121Z,1001.3
2023-03-06T00:33:18.516Z,1001.3
2023-03-06T00:36:18.446Z,1001.3
2023-03-06T00:39:18.688Z,1001.3
2023-03-06T00:42:18.874Z,1001.3
2023-03-06T00:45:17.764Z,1001.3
2023-03-06T00:48:22.930Z,1001.3
2023-03-06T00:51:18.089Z,1001.3
2023-03-06T00:54:18.542Z,1001.3
2023-03-06T00:57:18.693Z,1001.3
2023-03-06T01:00:19.293Z,1001.3
2023-03-06T01:03:18.373Z,1001.3
2023-03-06T01:06:18.699Z,1001.3
2023-03-06T01:09:18.888Z,1001.3
2023-03-06T01:12:18.012Z,1001.3
2023-03-06T01:15:18.292Z,1001.3
2023-03-06T01:18:18.811Z,1001.2
2023-03-06T01:21:17.984Z,1001.2
2023-03-06T01:24:17.909Z,1001.2
2023-03-06T01:27:17.982Z,1001.2
2023-03-06T01:30:18.158Z,1001.1
2023-03-06T01:33:18.428Z,1001.1
2023-03-06T01:36:19.153Z,1001
2023-03-06T01:39:18.586Z,1001
2023-03-06T01:42:18.530Z,1001
2023-03-06T01:45:17.821Z,1001
2023-03-06T01:48:17.839Z,1001
2023-03-06T01:51:17.654Z,1001
2023-03-06T01:54:19.365Z,1000.9
2023-03-06T01:57:18.790Z,1000.9
2023-03-06T02:00:18.133Z,1000.9
2023-03-06T02:03:18.454Z,1000.9
2023-03-06T02:06:18.822Z,1000.9
2023-03-06T02:09:18.029Z,1000.9
2023-03-06T02:12:18.600Z,1000.9
2023-03-06T02:15:19.321Z,1000.9
2023-03-06T02:18:18.580Z,1000.8
2023-03-06T02:21:18.708Z,1000.7
2023-03-06T02:24:17.749Z,1000.7
2023-03-06T02:27:18.093Z,1000.6
2023-03-06T02:30:18.248Z,1000.6
2023-03-06T02:33:18.768Z,1000.6
2023-03-06T02:36:17.894Z,1000.6
2023-03-06T02:39:18.279Z,1000.5
2023-03-06T02:42:18.518Z,1000.5
2023-03-06T02:45:17.820Z,1000.5
2023-03-06T02:48:18.175Z,1000.5
2023-03-06T02:51:19.899Z,1000.5
2023-03-06T02:54:18.006Z,1000.4
2023-03-06T02:57:18.222Z,1000.4
2023-03-06T03:00:18.322Z,1000.3
2023-03-06T03:03:18.574Z,1000.3
2023-03-06T03:06:18.502Z,1000.3
2023-03-06T03:09:19.199Z,1000.2
2023-03-06T03:12:18.470Z,1000.2
2023-03-06T03:15:18.799Z,1000.2
2023-03-06T03:18:18.154Z,1000.2
2023-03-06T03:21:18.310Z,1000.1
2023-03-06T03:24:18.497Z,1000.1
2023-03-06T03:27:18.527Z,1000.1
2023-03-06T03:30:18.190Z,1000.1
2023-03-06T03:33:18.111Z,1000.1
2023-03-06T03:36:18.237Z,1000.1
2023-03-06T03:39:25.259Z,1000.1
2023-03-06T03:42:18.561Z,1000
2023-03-06T03:45:19.104Z,1000
2023-03-06T03:48:18.552Z,1000
2023-03-06T03:51:18.937Z,999.9
2023-03-06T03:54:18.192Z,999.9
2023-03-06T03:57:18.217Z,999.9
2023-03-06T04:00:18.442Z,999.9
2023-03-06T04:03:18.992Z,999.9
2023-03-06T04:06:18.726Z,999.9
2023-03-06T04:09:18.334Z,999.8
2023-03-06T04:12:18.687Z,999.8
2023-03-06T04:15:18.079Z,999.8
2023-03-06T04:18:18.603Z,999.8
2023-03-06T04:21:19.439Z,999.7
2023-03-06T04:24:35.208Z,999.7
2023-03-06T04:27:18.557Z,999.7
2023-03-06T04:30:18.787Z,999.7
2023-03-06T04:33:18.379Z,999.6
2023-03-06T04:36:18.519Z,999.6
2023-03-06T04:39:19.287Z,999.6
2023-03-06T04:42:18.609Z,999.6
2023-03-06T04:45:18.834Z,999.6
2023-03-06T04:48:17.802Z,999.6
2023-03-06T04:51:18.077Z,999.5
2023-03-06T04:54:19.126Z,999.5
2023-03-06T04:57:19.122Z,999.5
2023-03-06T05:02:39.517Z,999.4
2023-03-06T05:03:19.215Z,999.4
2023-03-06T05:06:18.544Z,999.4
2023-03-06T05:09:18.684Z,999.4
2023-03-06T05:12:18.187Z,999.4
2023-03-06T05:15:18.687Z,999.4
2023-03-06T05:18:19.499Z,999.3
2023-03-06T05:21:18.579Z,999.3
2023-03-06T05:24:18.549Z,999.3
2023-03-06T05:27:18.125Z,999.3
2023-03-06T05:30:18.630Z,999.3
2023-03-06T05:33:18.038Z,999.3
2023-03-06T05:36:18.583Z,999.3
2023-03-06T05:39:18.240Z,999.3
2023-03-06T05:42:18.421Z,999.3
2023-03-06T05:45:18.893Z,999.3
2023-03-06T05:48:18.127Z,999.3
2023-03-06T05:51:18.655Z,999.3
2023-03-06T05:54:19.180Z,999.3
2023-03-06T05:57:18.910Z,999.3
2023-03-06T06:00:20.839Z,999.3
2023-03-06T06:03:18.845Z,999.3
2023-03-06T06:06:19.908Z,999.3
2023-03-06T06:09:20.955Z,999.3
2023-03-06T06:12:19.247Z,999.3
2023-03-06T06:15:18.492Z,999.3
2023-03-06T06:18:18.216Z,999.3
2023-03-06T06:21:18.542Z,999.3
2023-03-06T06:24:18.019Z,999.3
2023-03-06T06:27:18.314Z,999.3
2023-03-06T06:30:19.274Z,999.3
2023-03-06T06:33:18.909Z,999.3
2023-03-06T06:36:18.201Z,999.3
2023-03-06T06:39:18.591Z,999.3
2023-03-06T06:42:39.659Z,999.3
2023-03-06T06:45:18.856Z,999.3
2023-03-06T06:48:19.480Z,999.3
2023-03-06T06:51:18.712Z,999.3
2023-03-06T06:54:18.989Z,999.3
2023-03-06T06:57:18.278Z,999.3
2023-03-06T07:00:18.646Z,999.3
2023-03-06T07:03:18.801Z,999.3
2023-03-06T07:06:18.299Z,999.3
2023-03-06T07:09:19.015Z,999.3
2023-03-06T07:12:18.230Z,999.3
2023-03-06T07:15:19.876Z,999.3
2023-03-06T07:18:18.547Z,999.3
2023-03-06T07:21:18.665Z,999.3
2023-03-06T07:24:19.104Z,999.3
2023-03-06T07:27:18.588Z,999.3
2023-03-06T07:30:18.875Z,999.3
2023-03-06T07:33:18.323Z,999.3
2023-03-06T07:36:18.622Z,999.3
2023-03-06T07:39:19.074Z,999.3
2023-03-06T07:42:18.887Z,999.3
2023-03-06T07:45:18.313Z,999.3
2023-03-06T07:48:18.730Z,999.3
2023-03-06T07:51:18.360Z,999.3
2023-03-06T07:54:18.570Z,999.3
2023-03-06T07:57:18.170Z,999.4
2023-03-06T08:00:19.081Z,999.4
2023-03-06T08:03:18.455Z,999.4
2023-03-06T08:06:18.711Z,999.5
2023-03-06T08:09:18.962Z,999.5
2023-03-06T08:12:18.526Z,999.5
2023-03-06T08:15:18.012Z,999.5
2023-03-06T08:18:18.560Z,999.6
2023-03-06T08:21:18.901Z,999.6
2023-03-06T08:24:18.575Z,999.6
2023-03-06T08:27:18.840Z,999.6
2023-03-06T08:30:24.403Z,999.6
2023-03-06T08:33:19.003Z,999.7
2023-03-06T08:36:18.594Z,999.7
2023-03-06T08:39:18.862Z,999.7
2023-03-06T08:42:18.488Z,999.7
2023-03-06T08:45:18.998Z,999.7
2023-03-06T08:48:18.586Z,999.7
2023-03-06T08:51:18.493Z,999.7
2023-03-06T08:54:18.950Z,999.7
2023-03-06T08:57:19.052Z,999.8
2023-03-06T09:00:19.131Z,999.8
2023-03-06T09:03:18.566Z,999.7
2023-03-06T09:06:19.065Z,999.7
2023-03-06T09:09:19.158Z,999.7
2023-03-06T09:12:18.780Z,999.8
2023-03-06T09:15:19.099Z,999.8
2023-03-06T09:18:18.623Z,999.8
2023-03-06T09:21:18.228Z,999.8
2023-03-06T09:24:18.632Z,999.8
2023-03-06T09:27:18.153Z,999.8
2023-03-06T09:30:18.607Z,999.8
2023-03-06T09:33:19.682Z,999.8
2023-03-06T09:36:19.322Z,999.8
2023-03-06T09:39:18.471Z,999.8
2023-03-06T09:42:19.310Z,999.8
2023-03-06T09:45:19.243Z,999.8
2023-03-06T09:48:19.200Z,999.8
2023-03-06T09:51:19.041Z,999.8
2023-03-06T09:54:18.541Z,999.8
2023-03-06T09:57:18.046Z,999.8
2023-03-06T10:00:18.544Z,999.8
2023-03-06T10:03:19.152Z,999.8
2023-03-06T10:06:19.278Z,999.8
2023-03-06T10:09:19.165Z,999.8
2023-03-06T10:12:18.663Z,999.7
2023-03-06T10:15:18.424Z,999.7
2023-03-06T10:18:19.143Z,999.6
2023-03-06T10:21:19.805Z,999.6
2023-03-06T10:24:18.155Z,999.6
2023-03-06T10:27:18.983Z,999.6
2023-03-06T10:30:19.005Z,999.5
2023-03-06T10:33:18.482Z,999.5
2023-03-06T10:36:19.094Z,999.5
2023-03-06T10:39:19.874Z,999.5
2023-03-06T10:42:19.323Z,999.5
2023-03-06T10:45:19.554Z,999.5
2023-03-06T10:48:18.363Z,999.5
2023-03-06T10:51:19.501Z,999.5
2023-03-06T10:54:18.966Z,999.5
2023-03-06T10:57:18.374Z,999.4
2023-03-06T11:00:20.841Z,999.4
2023-03-06T11:03:18.491Z,999.4
2023-03-06T11:06:19.043Z,999.4
2023-03-06T11:09:18.786Z,999.4
2023-03-06T11:12:18.391Z,999.3
2023-03-06T11:15:18.814Z,999.3
2023-03-06T11:18:19.176Z,999.3
2023-03-06T11:21:19.043Z,999.2
2023-03-06T11:24:18.337Z,999.2
2023-03-06T11:27:18.980Z,999.1
2023-03-06T11:30:19.075Z,999.1
2023-03-06T11:33:19.162Z,999.1
2023-03-06T11:36:18.774Z,999.1
2023-03-06T11:39:18.877Z,999.1
2023-03-06T11:42:19.084Z,999.1
2023-03-06T11:45:19.282Z,999.1
2023-03-06T11:48:19.349Z,999
2023-03-06T11:51:18.990Z,999
2023-03-06T11:54:18.391Z,999
2023-03-06T11:57:19.343Z,999
2023-03-06T12:00:19.208Z,999
2023-03-06T12:03:25.881Z,999
2023-03-06T12:06:18.975Z,999
2023-03-06T12:09:19.031Z,999
2023-03-06T12:12:19.014Z,999
2023-03-06T12:15:19.021Z,999
2023-03-06T12:18:18.578Z,999
2023-03-06T12:21:19.842Z,999
2023-03-06T12:24:18.984Z,999
2023-03-06T12:27:19.390Z,998.9
2023-03-06T12:30:20.228Z,998.9
2023-03-06T12:33:18.966Z,998.9
2023-03-06T12:36:19.159Z,998.9
2023-03-06T12:39:18.731Z,998.9
2023-03-06T12:42:23.955Z,998.9
2023-03-06T12:45:18.897Z,998.8
2023-03-06T12:48:18.625Z,998.8
2023-03-06T12:51:19.147Z,998.7
2023-03-06T12:54:19.173Z,998.7
2023-03-06T12:57:18.404Z,998.7
2023-03-06T13:00:20.345Z,998.7
2023-03-06T13:03:18.777Z,998.7
2023-03-06T13:06:18.403Z,998.7
2023-03-06T13:09:18.425Z,998.6
2023-03-06T13:12:19.567Z,998.6
2023-03-06T13:15:18.081Z,998.6
2023-03-06T13:18:18.523Z,998.6
2023-03-06T13:21:19.131Z,998.6
2023-03-06T13:24:18.405Z,998.6
2023-03-06T13:27:18.809Z,998.6
2023-03-06T13:30:19.639Z,998.5
2023-03-06T13:33:19.125Z,998.5
2023-03-06T13:36:18.749Z,998.5
2023-03-06T13:39:18.611Z,998.5
2023-03-06T13:42:19.065Z,998.5
2023-03-06T13:45:18.308Z,998.5
2023-03-06T13:48:45.325Z,998.5
2023-03-06T13:51:18.234Z,998.5
2023-03-06T13:54:19.021Z,998.5
2023-03-06T13:57:18.682Z,998.5
2023-03-06T14:00:18.475Z,998.4
2023-03-06T14:03:19.159Z,998.4
2023-03-06T14:06:18.892Z,998.4
2023-03-06T14:09:18.851Z,998.4
2023-03-06T14:12:19.141Z,998.3
2023-03-06T14:15:18.497Z,998.3
2023-03-06T14:18:18.005Z,998.3
2023-03-06T14:21:18.268Z,998.3
2023-03-06T14:24:18.545Z,998.3
2023-03-06T14:27:19.446Z,998.3
2023-03-06T14:30:19.088Z,998.2
2023-03-06T14:33:18.579Z,998.2
2023-03-06T14:36:18.879Z,998.2
2023-03-06T14:39:24.870Z,998.2
2023-03-06T14:42:18.494Z,998.1
2023-03-06T14:45:19.740Z,998.1
2023-03-06T14:48:19.109Z,998.1
2023-03-06T14:51:19.438Z,998.1
2023-03-06T14:54:18.454Z,998.1
2023-03-06T14:57:18.810Z,998.1
2023-03-06T15:00:18.385Z,998.1
2023-03-06T15:03:19.185Z,998.1
2023-03-06T15:06:18.635Z,998.1
2023-03-06T15:09:18.713Z,998.1
2023-03-06T15:12:18.173Z,998.1
2023-03-06T15:15:18.269Z,998.1
2023-03-06T15:18:18.616Z,998
2023-03-06T15:21:19.487Z,998
2023-03-06T15:24:18.892Z,998
2023-03-06T15:27:18.286Z,998
2023-03-06T15:30:19.216Z,998
2023-03-06T15:33:18.880Z,998
2023-03-06T15:36:18.266Z,997.9
2023-03-06T15:39:19.460Z,997.9
2023-03-06T15:42:18.815Z,997.9
2023-03-06T15:45:19.225Z,997.8
2023-03-06T15:48:18.681Z,997.8
2023-03-06T15:51:18.608Z,997.8
2023-03-06T15:54:18.259Z,997.8
2023-03-06T15:57:19.114Z,997.8
2023-03-06T16:00:28.627Z,997.8
2023-03-06T16:03:18.328Z,997.8
2023-03-06T16:06:18.706Z,997.8
2023-03-06T16:09:18.176Z,997.8
2023-03-06T16:12:18.626Z,997.7
2023-03-06T16:15:19.437Z,997.7
2023-03-06T16:18:18.891Z,997.7
2023-03-06T16:21:18.284Z,997.7
2023-03-06T16:24:18.567Z,997.7
2023-03-06T16:27:19.407Z,997.7
2023-03-06T16:30:19.544Z,997.6
2023-03-06T16:33:19.560Z,997.6
2023-03-06T16:36:18.235Z,997.6
2023-03-06T16:39:18.540Z,997.6
2023-03-06T16:42:18.082Z,997.6
2023-03-06T16:45:18.386Z,997.6
2023-03-06T16:48:18.289Z,997.6
2023-03-06T16:51:19.013Z,997.5
2023-03-06T16:54:18.279Z,997.5
2023-03-06T16:57:18.735Z,997.5
2023-03-06T17:00:18.477Z,997.5
2023-03-06T17:03:18.294Z,997.5
2023-03-06T17:06:18.271Z,997.5
2023-03-06T17:09:19.656Z,997.4
2023-03-06T17:12:18.746Z,997.4
2023-03-06T17:15:18.996Z,997.4
2023-03-06T17:18:18.725Z,997.4
2023-03-06T17:21:18.078Z,997.4
2023-03-06T17:24:18.325Z,997.4
2023-03-06T17:27:19.439Z,997.4
2023-03-06T17:30:18.121Z,997.4
2023-03-06T17:33:18.753Z,997.4
2023-03-06T17:36:18.571Z,997.4
2023-03-06T17:39:23.674Z,997.4
2023-03-06T17:42:17.888Z,997.3
2023-03-06T17:45:18.981Z,997.3
2023-03-06T17:48:18.413Z,997.3
2023-03-06T17:51:18.914Z,997.3
2023-03-06T17:54:18.336Z,997.3
2023-03-06T17:57:19.175Z,997.3
2023-03-06T18:00:18.649Z,997.3
2023-03-06T18:03:19.247Z,997.2
2023-03-06T18:06:18.713Z,997.2
2023-03-06T18:09:17.974Z,997.2
2023-03-06T18:12:18.194Z,997.1
2023-03-06T18:15:18.986Z,997.1
2023-03-06T18:18:18.023Z,997.1
2023-03-06T18:21:18.673Z,997
2023-03-06T18:24:18.801Z,997
2023-03-06T18:27:18.441Z,997
2023-03-06T18:30:19.041Z,996.9
2023-03-06T18:33:18.117Z,996.8
2023-03-06T18:36:18.635Z,996.8
2023-03-06T18:39:18.532Z,996.7
2023-03-06T18:42:19.373Z,996.7
2023-03-06T18:45:18.960Z,996.6
2023-03-06T18:48:18.232Z,996.6
2023-03-06T18:51:18.951Z,996.5
2023-03-06T18:54:18.476Z,996.5
2023-03-06T18:57:19.268Z,996.5
2023-03-06T19:00:18.978Z,996.4
2023-03-06T19:03:18.456Z,996.4
2023-03-06T19:06:18.868Z,996.4
2023-03-06T19:09:18.448Z,996.4
2023-03-06T19:12:19.074Z,996.4
2023-03-06T19:15:18.843Z,996.3
2023-03-06T19:18:18.494Z,996.3
2023-03-06T19:21:18.609Z,996.3
2023-03-06T19:24:18.970Z,996.2
2023-03-06T19:27:18.340Z,996.2
2023-03-06T19:30:18.759Z,996.1
2023-03-06T19:33:18.117Z,996.1
2023-03-06T19:36:18.513Z,996
2023-03-06T19:39:18.943Z,996
2023-03-06T19:42:18.371Z,995.9
2023-03-06T19:45:18.863Z,995.9
2023-03-06T19:48:18.283Z,995.8
2023-03-06T19:51:18.573Z,995.7
2023-03-06T19:54:18.398Z,995.7
2023-03-06T19:57:18.871Z,995.7
2023-03-06T20:00:18.522Z,995.6
2023-03-06T20:03:18.916Z,995.5
2023-03-06T20:06:18.589Z,995.5
2023-03-06T20:09:18.128Z,995.4
2023-03-06T20:12:18.796Z,995.4
2023-03-06T20:15:18.804Z,995.3
2023-03-06T20:18:18.716Z,995.3
2023-03-06T20:21:18.389Z,995.2
2023-03-06T20:24:18.764Z,995.2
2023-03-06T20:27:18.032Z,995.1
2023-03-06T20:30:18.693Z,995.1
2023-03-06T20:33:18.290Z,995
2023-03-06T20:36:18.692Z,994.9
2023-03-06T20:39:18.725Z,994.8
2023-03-06T20:42:19.162Z,994.7
2023-03-06T20:45:18.626Z,994.6
2023-03-06T20:48:18.830Z,994.6
2023-03-06T20:51:18.400Z,994.5
2023-03-06T20:54:18.973Z,994.4
2023-03-06T20:57:18.725Z,994.4
2023-03-06T21:00:18.183Z,994.3
2023-03-06T21:03:18.789Z,994.3
2023-03-06T21:06:18.890Z,994.2
2023-03-06T21:09:18.547Z,994.2
2023-03-06T21:12:19.114Z,994.1
2023-03-06T21:15:18.903Z,994.1
2023-03-06T21:18:18.304Z,994
2023-03-06T21:21:18.698Z,994
2023-03-06T21:24:21.231Z,993.9
2023-03-06T21:27:18.781Z,993.8
2023-03-06T21:30:18.951Z,993.8
2023-03-06T21:33:18.640Z,993.7
2023-03-06T21:36:18.736Z,993.6
2023-03-06T21:39:18.826Z,993.6
2023-03-06T21:42:19.020Z,993.5
2023-03-06T21:45:18.362Z,993.5
2023-03-06T21:48:19.091Z,993.4
2023-03-06T21:51:18.340Z,993.4
2023-03-06T21:54:18.561Z,993.3
2023-03-06T21:57:18.116Z,993.2
2023-03-06T22:00:18.968Z,993.1
2023-03-06T22:03:18.859Z,993
2023-03-06T22:06:18.237Z,993
2023-03-06T22:09:18.579Z,993
2023-03-06T22:12:18.156Z,992.9
2023-03-06T22:15:18.423Z,992.8
2023-03-06T22:18:18.927Z,992.7
2023-03-06T22:21:18.587Z,992.7
2023-03-06T22:24:18.759Z,992.6
2023-03-06T22:27:19.103Z,992.5
2023-03-06T22:30:18.766Z,992.4
2023-03-06T22:33:18.141Z,992.3
2023-03-06T22:36:18.434Z,992.2
2023-03-06T22:39:19.148Z,992.1
2023-03-06T22:42:18.721Z,992.1
2023-03-06T22:45:19.335Z,992
2023-03-06T22:48:18.436Z,992
2023-03-06T22:51:18.887Z,991.9
2023-03-06T22:54:18.701Z,991.8
2023-03-06T22:57:19.568Z,991.7
2023-03-06T23:00:18.998Z,991.7
2023-03-06T23:03:18.960Z,991.7
2023-03-06T23:06:19.333Z,991.6
2023-03-06T23:09:19.296Z,991.5
2023-03-06T23:12:18.446Z,991.4
2023-03-06T23:15:19.099Z,991.3
2023-03-06T23:18:18.671Z,991.3
2023-03-06T23:21:19.088Z,991.2
2023-03-06T23:24:18.646Z,991.1
2023-03-06T23:27:19.211Z,991
2023-03-06T23:30:18.772Z,990.9
2023-03-06T23:33:18.870Z,990.8
2023-03-06T23:36:18.616Z,990.7
2023-03-06T23:39:19.155Z,990.7
2023-03-06T23:42:18.945Z,990.6
2023-03-06T23:45:18.540Z,990.6
2023-03-06T23:48:18.150Z,990.5
2023-03-06T23:51:18.821Z,990.4
2023-03-06T23:54:18.322Z,990.3
2023-03-06T23:57:19.179Z,990.3
